Time;durP1;ratioP1;P1;durP2;ratioP2;P2;SDS_P1;SDS_P2;PMS_P1;PMS_P2;Temp;Humidity;BMP_temperature;BMP_pressure;BME280_temperature;BME280_humidity;BME280_pressure;Samples;Min_cycle;Max_cycle;Signal;HPM_P1;HPM_P2
2022/05/11 00:02:49;;;;;;;10.85;5.32;;;12.40;99.90;;;;;;6274086;28;20228;-67
2022/05/11 00:05:55;;;;;;;8.43;5.25;;;12.40;99.90;;;;;;6274369;28;20639;-68
2022/05/11 00:09:01;;;;;;;7.65;5.22;;;12.40;99.90;;;;;;6256224;28;20228;-65
2022/05/11 00:12:09;;;;;;;10.63;4.72;;;12.40;99.90;;;;;;6255922;28;20211;-68
2022/05/11 00:15:20;;;;;;;7.95;5.03;;;12.40;99.90;;;;;;6274485;28;20211;-68
2022/05/11 00:18:26;;;;;;;6.35;4.95;;;12.30;99.90;;;;;;6273990;28;20234;-67
2022/05/11 00:21:31;;;;;;;5.47;4.38;;;12.40;99.90;;;;;;6274279;28;20229;-68
2022/05/11 00:24:37;;;;;;;4.90;4.55;;;12.30;99.90;;;;;;6274059;28;20231;-67
2022/05/11 00:27:42;;;;;;;11.70;5.07;;;12.20;99.90;;;;;;6273434;28;20223;-67
2022/05/11 00:30:49;;;;;;;5.13;4.72;;;12.20;99.90;;;;;;6273675;28;20561;-69
2022/05/11 00:33:54;;;;;;;10.43;4.88;;;12.20;99.90;;;;;;6273652;28;20243;-68
2022/05/11 00:37:00;;;;;;;5.55;4.65;;;12.00;99.90;;;;;;6273160;28;20204;-67
2022/05/11 00:40:07;;;;;;;5.38;4.88;;;11.90;99.90;;;;;;6256223;28;20232;-67
2022/05/11 00:43:12;;;;;;;5.25;4.88;;;11.90;99.90;;;;;;6272817;28;20238;-67
2022/05/11 00:46:25;;;;;;;8.07;5.00;;;11.90;99.90;;;;;;6273276;28;20212;-67
2022/05/11 00:49:38;;;;;;;5.40;4.90;;;11.90;99.90;;;;;;6273301;28;20239;-67
2022/05/11 00:52:46;;;;;;;4.80;4.40;;;11.90;99.90;;;;;;6273579;28;20577;-66
2022/05/11 00:55:55;;;;;;;4.90;4.07;;;11.80;99.90;;;;;;6273683;28;20204;-69
2022/05/11 00:59:05;;;;;;;4.40;4.03;;;11.80;99.90;;;;;;6272558;28;20236;-67
2022/05/11 01:02:14;;;;;;;6.22;3.80;;;11.80;99.90;;;;;;6272596;28;20214;-68
2022/05/11 01:05:19;;;;;;;4.28;3.80;;;11.80;99.90;;;;;;6272798;28;20208;-67
2022/05/11 01:08:25;;;;;;;6.13;4.05;;;11.90;99.90;;;;;;6273135;28;20246;-69
2022/05/11 01:11:31;;;;;;;4.32;3.72;;;11.90;99.90;;;;;;6273604;28;20224;-67
2022/05/11 01:14:39;;;;;;;3.70;3.28;;;12.00;99.90;;;;;;6272823;28;20236;-67
2022/05/11 01:17:47;;;;;;;3.22;2.95;;;12.00;99.90;;;;;;6272123;28;20238;-68
2022/05/11 01:20:52;;;;;;;3.75;3.38;;;11.90;99.90;;;;;;6272587;28;20228;-67
2022/05/11 01:24:03;;;;;;;3.15;2.95;;;11.90;99.90;;;;;;6272538;28;20240;-67
2022/05/11 01:27:35;;;;;;;3.53;3.17;;;11.90;99.90;;;;;;6272292;28;20219;-67
2022/05/11 01:30:45;;;;;;;3.15;2.80;;;11.90;99.90;;;;;;6272640;28;20218;-66
2022/05/11 01:33:52;;;;;;;4.40;2.60;;;11.90;99.90;;;;;;6272021;28;20721;-68
2022/05/11 01:36:57;;;;;;;2.55;2.42;;;11.80;99.90;;;;;;6272311;28;20214;-67
2022/05/11 01:40:02;;;;;;;2.90;2.70;;;11.80;99.90;;;;;;6271615;28;20239;-67
2022/05/11 01:43:16;;;;;;;4.03;2.20;;;11.80;99.90;;;;;;6271657;28;20242;-66
2022/05/11 01:46:23;;;;;;;1.90;1.90;;;11.70;99.90;;;;;;6272102;28;20562;-67
2022/05/11 01:49:28;;;;;;;2.90;2.33;;;11.80;99.90;;;;;;6271720;28;20236;-67
2022/05/11 01:52:33;;;;;;;2.50;2.40;;;11.70;99.90;;;;;;6271425;28;20239;-67
2022/05/11 01:55:38;;;;;;;2.13;2.10;;;11.60;99.90;;;;;;6272087;28;20295;-67
2022/05/11 01:58:45;;;;;;;2.47;2.38;;;11.60;99.90;;;;;;6270999;28;20247;-67
2022/05/11 02:01:50;;;;;;;2.08;2.00;;;11.60;99.90;;;;;;6271446;28;20558;-69
2022/05/11 02:08:20;;;;;;;2.30;2.20;;;11.50;99.90;;;;;;6271685;28;20717;-65
2022/05/11 02:11:27;;;;;;;3.10;2.38;;;11.50;99.90;;;;;;6253225;28;20232;-66
2022/05/11 02:14:33;;;;;;;2.17;2.10;;;11.60;99.90;;;;;;6271191;28;20236;-67
2022/05/11 02:17:38;;;;;;;3.50;2.15;;;11.60;99.90;;;;;;6271030;28;20251;-67
2022/05/11 02:20:44;;;;;;;4.13;2.20;;;11.50;99.90;;;;;;6271381;28;20219;-67
2022/05/11 02:23:50;;;;;;;1.85;1.83;;;11.60;99.90;;;;;;6271319;28;20231;-67
2022/05/11 02:26:56;;;;;;;3.58;2.45;;;11.50;99.90;;;;;;6271615;28;20229;-67
2022/05/11 02:30:04;;;;;;;4.38;2.15;;;11.50;99.90;;;;;;6271777;28;20216;-66
2022/05/11 02:33:17;;;;;;;4.00;2.28;;;11.60;99.90;;;;;;6271500;28;20228;-67
2022/05/11 02:36:23;;;;;;;3.08;2.00;;;11.60;99.90;;;;;;6271197;28;20664;-68
2022/05/11 02:39:28;;;;;;;2.72;2.30;;;11.60;99.90;;;;;;6271147;28;20337;-67
2022/05/11 02:42:34;;;;;;;7.07;2.60;;;11.60;99.90;;;;;;6271122;28;20542;-66
2022/05/11 02:45:42;;;;;;;4.75;2.60;;;11.70;99.90;;;;;;6271223;28;20214;-67
2022/05/11 02:48:47;;;;;;;3.85;2.50;;;11.60;99.90;;;;;;6270806;28;20242;-66
2022/05/11 02:51:52;;;;;;;2.15;2.03;;;11.60;99.90;;;;;;6271630;28;20252;-67
2022/05/11 02:54:58;;;;;;;2.67;2.47;;;11.40;99.90;;;;;;6269445;28;20607;-66
2022/05/11 02:58:03;;;;;;;2.92;2.58;;;11.40;99.90;;;;;;6270899;28;20272;-67
2022/05/11 03:01:11;;;;;;;2.90;2.70;;;11.50;99.90;;;;;;6271486;28;20236;-72
2022/05/11 03:04:16;;;;;;;2.63;2.42;;;11.50;99.90;;;;;;6267972;28;20228;-67
2022/05/11 03:07:21;;;;;;;2.90;2.60;;;11.50;99.90;;;;;;6271033;28;20243;-68
2022/05/11 03:10:27;;;;;;;2.63;2.42;;;11.60;99.90;;;;;;6271083;28;20232;-67
2022/05/11 03:13:32;;;;;;;6.10;2.55;;;11.60;99.90;;;;;;6270713;28;20285;-68
2022/05/11 03:16:40;;;;;;;2.63;2.50;;;11.60;99.90;;;;;;6253557;28;20204;-67
2022/05/11 03:19:45;;;;;;;2.55;2.40;;;11.60;99.90;;;;;;6270345;28;20239;-66
2022/05/11 03:22:51;;;;;;;4.53;2.33;;;11.50;99.90;;;;;;6272991;28;20232;-68
2022/05/11 03:25:58;;;;;;;4.85;2.97;;;11.60;99.90;;;;;;6275519;28;20211;-67
2022/05/11 03:29:06;;;;;;;8.50;2.90;;;11.50;99.90;;;;;;6274598;28;20768;-66
2022/05/11 03:35:44;;;;;;;4.53;2.67;;;11.60;99.90;;;;;;6229127;28;20215;-66
2022/05/11 03:38:50;;;;;;;5.60;3.03;;;11.50;99.90;;;;;;6275122;28;20235;-66
2022/05/11 03:41:55;;;;;;;4.85;2.75;;;11.50;99.90;;;;;;6275420;28;20330;-68
2022/05/11 03:45:11;;;;;;;4.63;2.80;;;11.50;99.90;;;;;;6258265;28;20214;-66
2022/05/11 03:48:18;;;;;;;6.50;3.22;;;11.50;99.90;;;;;;6275301;28;20223;-67
2022/05/11 03:51:24;;;;;;;3.72;2.88;;;11.60;99.90;;;;;;6275719;28;20200;-67
2022/05/11 03:54:29;;;;;;;2.50;2.35;;;11.60;99.90;;;;;;6275141;28;20254;-67
2022/05/11 03:57:37;;;;;;;7.40;2.90;;;11.60;99.90;;;;;;6274427;28;20235;-68
2022/05/11 04:00:42;;;;;;;5.53;3.03;;;11.60;99.90;;;;;;6275314;28;20223;-68
2022/05/11 04:03:49;;;;;;;5.57;2.97;;;11.70;99.90;;;;;;6275650;28;20228;-65
2022/05/11 04:06:54;;;;;;;4.82;3.00;;;11.70;99.90;;;;;;6274379;28;20216;-67
2022/05/11 04:10:00;;;;;;;7.03;3.00;;;11.70;99.90;;;;;;6274961;28;20220;-66
2022/05/11 04:13:06;;;;;;;6.30;3.00;;;11.70;99.90;;;;;;6288983;28;20227;-66
2022/05/11 04:16:12;;;;;;;4.55;2.97;;;11.60;99.90;;;;;;6286898;28;20208;-68
2022/05/11 04:19:19;;;;;;;4.82;3.42;;;11.70;99.90;;;;;;6285548;28;20234;-68
2022/05/11 04:22:24;;;;;;;4.65;2.85;;;11.80;99.90;;;;;;6273334;28;20239;-68
2022/05/11 04:25:30;;;;;;;5.55;3.38;;;11.80;99.90;;;;;;6274830;28;20543;-67
2022/05/11 04:28:37;;;;;;;5.38;2.88;;;11.80;99.90;;;;;;6273951;28;20259;-67
2022/05/11 04:31:43;;;;;;;4.85;3.40;;;11.70;99.90;;;;;;6273861;28;20207;-68
2022/05/11 04:34:51;;;;;;;3.35;2.88;;;11.80;99.90;;;;;;6273212;28;20231;-67
2022/05/11 04:37:56;;;;;;;7.35;3.17;;;11.80;99.90;;;;;;6273338;28;20606;-69
2022/05/11 04:41:02;;;;;;;5.00;3.05;;;11.80;99.90;;;;;;6273725;28;20646;-68
2022/05/11 04:44:07;;;;;;;8.43;3.33;;;11.80;99.90;;;;;;6273294;28;20232;-68
2022/05/11 04:47:16;;;;;;;5.05;3.00;;;11.90;99.90;;;;;;6273107;28;20702;-67
2022/05/11 04:50:25;;;;;;;12.77;3.30;;;11.90;99.90;;;;;;6274231;28;20600;-65
2022/05/11 04:53:30;;;;;;;7.05;3.15;;;12.00;99.90;;;;;;6273149;28;20602;-66
2022/05/11 04:56:37;;;;;;;9.18;3.60;;;12.00;99.90;;;;;;6273649;28;20204;-68
2022/05/11 04:59:43;;;;;;;5.82;3.08;;;12.00;99.90;;;;;;6273303;28;20235;-67
2022/05/11 05:02:48;;;;;;;5.45;2.78;;;12.10;99.90;;;;;;6272968;28;20345;-68
2022/05/11 05:05:55;;;;;;;6.13;2.80;;;12.00;99.90;;;;;;6273732;28;20566;-67
2022/05/11 05:09:00;;;;;;;5.97;3.03;;;12.00;99.90;;;;;;6273460;28;20235;-67
2022/05/11 05:12:08;;;;;;;5.43;3.28;;;12.00;99.90;;;;;;6248281;28;20211;-67
2022/05/11 05:15:14;;;;;;;5.80;3.20;;;12.00;99.90;;;;;;6248920;28;20204;-68
2022/05/11 05:18:20;;;;;;;14.52;2.88;;;11.90;99.90;;;;;;6246772;28;20240;-69
2022/05/11 05:21:26;;;;;;;7.57;2.97;;;12.00;99.90;;;;;;6248680;28;20204;-67
2022/05/11 05:24:32;;;;;;;5.97;3.00;;;12.00;99.90;;;;;;6248238;28;20255;-67
2022/05/11 05:27:38;;;;;;;4.80;2.60;;;12.00;99.90;;;;;;6247829;28;20244;-67
2022/05/11 05:34:07;;;;;;;7.03;2.85;;;12.10;99.90;;;;;;6247990;28;20236;-68
2022/05/11 05:37:16;;;;;;;10.23;3.17;;;12.10;99.90;;;;;;6247831;28;20604;-67
2022/05/11 05:40:21;;;;;;;7.68;2.80;;;12.20;99.90;;;;;;6247686;28;20207;-66
2022/05/11 05:43:26;;;;;;;4.80;2.80;;;12.20;99.90;;;;;;6247017;28;20247;-68
2022/05/11 05:46:32;;;;;;;6.78;2.63;;;12.20;99.90;;;;;;6248068;28;20665;-68
2022/05/11 05:49:37;;;;;;;11.45;2.92;;;12.20;99.90;;;;;;6247314;28;20314;-67
2022/05/11 05:52:46;;;;;;;5.15;2.95;;;12.30;99.90;;;;;;6247032;28;20239;-67
2022/05/11 05:55:52;;;;;;;13.98;2.95;;;12.40;99.90;;;;;;6247881;28;20231;-67
2022/05/11 05:58:59;;;;;;;4.72;2.90;;;12.40;99.90;;;;;;6246955;28;20667;-67
2022/05/11 06:02:06;;;;;;;6.20;2.95;;;12.40;99.90;;;;;;6246597;28;20299;-67
2022/05/11 06:05:15;;;;;;;6.75;3.17;;;12.40;99.90;;;;;;6247634;28;20577;-67
2022/05/11 06:08:23;;;;;;;8.05;3.00;;;12.40;99.90;;;;;;6247582;28;20588;-68
2022/05/11 06:11:28;;;;;;;11.02;2.85;;;12.50;99.90;;;;;;6271153;28;20234;-67
2022/05/11 06:14:33;;;;;;;8.02;3.13;;;12.60;99.90;;;;;;6276211;28;20717;-67
2022/05/11 06:17:38;;;;;;;15.50;3.53;;;12.70;99.90;;;;;;6275977;28;20552;-67
2022/05/11 06:20:44;;;;;;;6.45;3.10;;;12.80;99.90;;;;;;6273577;28;20214;-66
2022/05/11 06:23:51;;;;;;;8.32;2.70;;;12.90;99.90;;;;;;6271231;28;20261;-67
2022/05/11 06:26:56;;;;;;;6.57;2.78;;;12.80;99.90;;;;;;6253701;28;20215;-68
2022/05/11 06:30:10;;;;;;;7.40;2.60;;;12.90;99.90;;;;;;6272327;28;20220;-67
2022/05/11 06:33:17;;;;;;;5.63;3.00;;;13.00;99.90;;;;;;6270527;28;20242;-67
2022/05/11 06:36:24;;;;;;;6.40;2.83;;;13.00;99.90;;;;;;6271728;28;20520;-67
2022/05/11 06:39:31;;;;;;;7.05;2.70;;;13.00;99.90;;;;;;6271347;28;20234;-68
2022/05/11 06:42:37;;;;;;;5.88;2.88;;;13.10;99.90;;;;;;6271374;28;20229;-67
2022/05/11 06:45:42;;;;;;;11.38;3.70;;;13.00;99.90;;;;;;6272076;28;20206;-67
2022/05/11 06:48:48;;;;;;;10.00;2.80;;;13.00;99.90;;;;;;6271438;28;20234;-67
2022/05/11 06:51:53;;;;;;;7.75;2.70;;;13.00;99.90;;;;;;6270896;28;20211;-66
2022/05/11 07:01:46;;;;;;;6.15;2.65;;;13.20;99.90;;;;;;6276873;28;20210;-68
2022/05/11 07:04:51;;;;;;;12.85;2.60;;;13.20;99.90;;;;;;6275603;28;20235;-68
2022/05/11 07:07:57;;;;;;;5.20;2.83;;;13.40;99.90;;;;;;6276229;28;20242;-70
2022/05/11 07:14:26;;;;;;;5.80;2.45;;;13.50;99.90;;;;;;6275494;28;20232;-67
2022/05/11 07:17:34;;;;;;;4.45;2.58;;;13.60;99.90;;;;;;6275605;28;20242;-67
2022/05/11 07:20:40;;;;;;;7.38;2.75;;;13.60;99.90;;;;;;6276263;28;20219;-69
2022/05/11 07:23:45;;;;;;;7.80;2.83;;;13.50;99.90;;;;;;6275769;28;20688;-67
2022/05/11 07:26:54;;;;;;;8.13;2.78;;;13.60;99.90;;;;;;6275518;28;20212;-68
2022/05/11 07:29:59;;;;;;;4.47;2.55;;;13.50;99.90;;;;;;6275744;28;20206;-67
2022/05/11 07:33:05;;;;;;;5.15;2.60;;;13.70;99.90;;;;;;6275122;28;20559;-66
2022/05/11 07:36:13;;;;;;;4.72;2.38;;;13.60;99.90;;;;;;6275780;28;20534;-67
2022/05/11 07:39:19;;;;;;;6.47;3.25;;;13.70;99.90;;;;;;6274985;28;20615;-67
2022/05/11 07:42:26;;;;;;;5.53;2.50;;;13.70;99.90;;;;;;6257057;28;20253;-67
2022/05/11 07:45:31;;;;;;;6.10;3.22;;;13.80;99.90;;;;;;6275578;28;20224;-68
2022/05/11 07:48:37;;;;;;;8.02;2.67;;;13.80;99.90;;;;;;6275203;28;20768;-67
2022/05/11 07:51:43;;;;;;;4.90;2.47;;;13.90;99.90;;;;;;6275155;28;20209;-67
2022/05/11 07:54:49;;;;;;;10.00;2.70;;;13.90;99.90;;;;;;6275065;28;20243;-68
2022/05/11 08:01:20;;;;;;;5.20;2.00;;;14.10;99.90;;;;;;6275158;28;20208;-66
2022/05/11 08:04:26;;;;;;;7.22;2.50;;;14.10;99.90;;;;;;6274496;28;20315;-67
2022/05/11 08:07:39;;;;;;;6.35;2.40;;;14.10;99.90;;;;;;6273960;28;20571;-67
2022/05/11 08:10:48;;;;;;;4.22;2.05;;;14.20;99.90;;;;;;6273985;28;20232;-66
2022/05/11 08:13:55;;;;;;;6.70;2.35;;;14.20;99.90;;;;;;6274614;28;20227;-67
2022/05/11 08:17:00;;;;;;;4.40;2.00;;;14.10;99.90;;;;;;6274537;28;20214;-67
2022/05/11 08:20:14;;;;;;;5.40;2.25;;;14.20;99.90;;;;;;6274876;28;20571;-66
2022/05/11 08:23:21;;;;;;;5.55;2.22;;;14.30;99.90;;;;;;6274427;28;20232;-66
2022/05/11 08:26:26;;;;;;;5.93;2.53;;;14.30;99.90;;;;;;6274519;28;20227;-67
2022/05/11 08:36:41;;;;;;;3.33;1.85;;;14.10;99.90;;;;;;6273301;28;20587;-67
2022/05/11 08:39:48;;;;;;;7.35;2.10;;;14.10;99.90;;;;;;6273853;28;20307;-67
2022/05/11 08:42:54;;;;;;;2.38;1.83;;;14.30;99.90;;;;;;6273306;28;20235;-67
2022/05/11 08:46:09;;;;;;;3.63;2.17;;;14.20;99.90;;;;;;6274027;28;20230;-67
2022/05/11 08:49:23;;;;;;;6.50;2.45;;;14.20;99.90;;;;;;6273872;28;20290;-66
2022/05/11 08:52:36;;;;;;;4.00;2.10;;;14.20;99.90;;;;;;6255833;28;20246;-66
2022/05/11 08:55:46;;;;;;;11.10;2.50;;;14.10;99.90;;;;;;6258567;28;20208;-66
2022/05/11 08:58:54;;;;;;;4.00;1.75;;;14.10;99.90;;;;;;6272862;28;20232;-66
2022/05/11 09:02:10;;;;;;;2.58;1.75;;;14.20;99.90;;;;;;6273532;28;20204;-67
2022/05/11 09:05:19;;;;;;;4.90;2.20;;;14.10;99.90;;;;;;6273727;28;20224;-67
2022/05/11 09:08:25;;;;;;;7.05;2.17;;;14.30;99.90;;;;;;6273313;28;20227;-66
2022/05/11 09:11:34;;;;;;;4.57;1.77;;;14.30;99.90;;;;;;6272865;28;20239;-68
2022/05/11 09:14:43;;;;;;;4.47;1.80;;;14.40;99.90;;;;;;6273071;28;20228;-66
2022/05/11 09:17:50;;;;;;;4.88;2.33;;;14.30;99.90;;;;;;6271507;28;20243;-66
2022/05/11 09:20:55;;;;;;;3.80;2.03;;;14.40;99.90;;;;;;6273465;28;20642;-67
2022/05/11 09:24:08;;;;;;;5.30;1.92;;;14.50;99.90;;;;;;6277893;28;20228;-67
2022/05/11 09:27:25;;;;;;;2.55;1.80;;;14.40;99.90;;;;;;6286321;28;20246;-65
2022/05/11 09:30:31;;;;;;;4.68;1.83;;;14.50;99.90;;;;;;6285601;28;20208;-66
2022/05/11 09:33:40;;;;;;;4.65;2.28;;;14.50;99.90;;;;;;6273695;28;20232;-66
2022/05/11 09:36:56;;;;;;;7.75;1.77;;;14.60;99.90;;;;;;6274347;28;20209;-66
2022/05/11 09:40:12;;;;;;;8.70;2.08;;;14.60;99.90;;;;;;6271854;28;20214;-67
2022/05/11 09:43:33;;;;;;;4.72;2.25;;;14.60;99.90;;;;;;6272137;28;20229;-66
2022/05/11 09:46:38;;;;;;;6.80;1.92;;;14.60;99.90;;;;;;6272399;28;20687;-65
2022/05/11 09:49:45;;;;;;;5.70;1.77;;;14.70;99.90;;;;;;6272175;28;20724;-67
2022/05/11 09:52:51;;;;;;;8.75;1.67;;;14.80;99.90;;;;;;6271957;28;20245;-66
2022/05/11 09:55:57;;;;;;;3.35;1.70;;;14.90;99.90;;;;;;6272284;28;20215;-66
2022/05/11 09:59:20;;;;;;;5.90;1.80;;;15.00;99.90;;;;;;6271814;28;20228;-67
2022/05/11 10:02:30;;;;;;;3.05;1.80;;;15.20;99.90;;;;;;6270248;28;20246;-67
2022/05/11 10:05:41;;;;;;;6.80;1.73;;;15.30;99.10;;;;;;6272045;28;20227;-67
2022/05/11 10:08:48;;;;;;;4.03;1.80;;;15.50;98.90;;;;;;6271630;28;20269;-67
2022/05/11 10:11:53;;;;;;;9.90;1.90;;;15.50;99.00;;;;;;6271301;28;20238;-67
2022/05/11 10:22:23;;;;;;;4.75;1.83;;;15.80;98.80;;;;;;6271573;28;20242;-67
2022/05/11 10:25:33;;;;;;;4.25;1.77;;;15.90;98.90;;;;;;6254037;28;20230;-67
2022/05/11 10:28:46;;;;;;;4.38;1.58;;;16.00;98.10;;;;;;6270987;28;20228;-66
2022/05/11 10:31:59;;;;;;;3.00;1.73;;;16.10;97.30;;;;;;6270870;28;20208;-66
2022/05/11 10:35:12;;;;;;;6.18;2.15;;;16.20;97.60;;;;;;6271681;28;20647;-66
2022/05/11 10:38:42;;;;;;;8.23;2.67;;;16.20;96.80;;;;;;6269734;28;20234;-67
2022/05/11 10:41:53;;;;;;;3.20;2.10;;;16.30;97.00;;;;;;6271834;28;20207;-67
2022/05/11 10:45:12;;;;;;;3.92;1.83;;;16.30;96.70;;;;;;6271107;28;20601;-66
2022/05/11 10:48:39;;;;;;;6.63;2.08;;;16.30;96.90;;;;;;6270965;28;20228;-67
2022/05/11 10:52:00;;;;;;;2.45;1.98;;;16.40;96.30;;;;;;6271412;28;20214;-66
2022/05/11 10:55:23;;;;;;;3.33;1.90;;;16.40;96.80;;;;;;6270936;28;20212;-67
2022/05/11 10:59:13;;;;;;;7.40;1.77;;;16.40;97.20;;;;;;6271405;28;20686;-66
2022/05/11 11:03:12;;;;;;;7.88;2.33;;;16.40;96.40;;;;;;6269561;28;20227;-67
2022/05/11 11:10:21;;;;;;;5.35;1.85;;;16.40;96.20;;;;;;6164156;28;20217;-67
2022/05/11 11:13:40;;;;;;;2.97;1.67;;;16.40;95.70;;;;;;6245910;28;20596;-66
2022/05/11 11:16:46;;;;;;;5.80;2.22;;;16.50;95.40;;;;;;6228586;28;20618;-67
2022/05/11 11:19:55;;;;;;;6.45;2.00;;;16.60;95.30;;;;;;6245256;28;20234;-67
2022/05/11 11:23:13;;;;;;;7.15;1.95;;;16.80;94.70;;;;;;6245827;28;20228;-66
2022/05/11 11:26:54;;;;;;;9.98;2.20;;;16.90;94.70;;;;;;6245958;28;20205;-66
2022/05/11 11:30:22;;;;;;;7.20;2.22;;;17.10;94.50;;;;;;6245621;28;20581;-67
2022/05/11 11:33:29;;;;;;;6.40;1.73;;;17.10;94.40;;;;;;6245570;28;20232;-67
2022/05/11 11:36:36;;;;;;;18.45;3.60;;;17.20;94.20;;;;;;6246365;28;20205;-67
2022/05/11 11:39:56;;;;;;;6.68;2.22;;;17.20;94.40;;;;;;6245866;28;20325;-68
2022/05/11 11:43:45;;;;;;;5.50;1.95;;;17.20;94.20;;;;;;6246770;28;20239;-66
2022/05/11 11:46:51;;;;;;;5.90;1.90;;;17.40;94.50;;;;;;6250422;28;20229;-67
2022/05/11 11:49:59;;;;;;;7.30;1.70;;;17.40;93.50;;;;;;6250613;28;20215;-66
2022/05/11 11:53:13;;;;;;;3.88;1.80;;;17.40;92.90;;;;;;6250104;28;20271;-66
2022/05/11 11:56:41;;;;;;;7.43;2.08;;;17.40;94.10;;;;;;6250259;28;20201;-66
2022/05/11 11:59:52;;;;;;;2.08;1.52;;;17.60;93.40;;;;;;6227065;28;20233;-67
2022/05/11 12:02:57;;;;;;;5.20;2.03;;;17.70;92.60;;;;;;6250082;28;20237;-68
2022/05/11 12:16:16;;;;;;;1.60;1.50;;;18.20;90.70;;;;;;6273470;28;20200;-67
2022/05/11 12:19:24;;;;;;;6.00;1.85;;;18.20;91.00;;;;;;6274310;28;20327;-67
2022/05/11 12:22:31;;;;;;;2.60;1.70;;;18.20;91.30;;;;;;6274406;28;20234;-67
2022/05/11 12:25:38;;;;;;;2.08;1.73;;;18.00;91.10;;;;;;6274630;28;20204;-68
2022/05/11 12:28:45;;;;;;;4.60;1.60;;;17.90;92.90;;;;;;6274002;28;20238;-67
2022/05/11 12:31:54;;;;;;;2.30;1.67;;;18.00;93.40;;;;;;6273864;28;20513;-68
2022/05/11 12:35:11;;;;;;;7.85;1.60;;;18.00;93.50;;;;;;6274988;28;20204;-66
2022/05/11 12:38:29;;;;;;;7.05;2.10;;;18.00;94.20;;;;;;6274026;28;20242;-67
2022/05/11 12:41:34;;;;;;;5.90;1.90;;;18.10;93.80;;;;;;6274149;28;20510;-68
2022/05/11 12:44:41;;;;;;;3.70;1.70;;;18.00;94.00;;;;;;6273936;28;20258;-66
2022/05/11 12:47:52;;;;;;;6.57;1.70;;;18.00;94.40;;;;;;6273280;28;20232;-67
2022/05/11 12:51:05;;;;;;;5.90;1.80;;;18.20;93.10;;;;;;6272879;28;20631;-68
2022/05/11 12:54:19;;;;;;;5.95;2.05;;;18.10;93.30;;;;;;6272970;28;20254;-67
2022/05/11 12:57:34;;;;;;;3.28;1.58;;;18.10;92.90;;;;;;6273690;28;20246;-66
2022/05/11 13:00:40;;;;;;;3.97;1.35;;;18.10;91.60;;;;;;6273529;28;20204;-67
2022/05/11 13:03:47;;;;;;;2.85;1.50;;;18.10;90.90;;;;;;6273285;28;20604;-67
2022/05/11 13:06:56;;;;;;;1.92;1.45;;;18.20;88.40;;;;;;6255400;28;20203;-67
2022/05/11 13:10:05;;;;;;;3.85;1.95;;;18.30;89.10;;;;;;6273887;28;20255;-66
2022/05/11 13:13:15;;;;;;;6.32;1.80;;;18.30;87.20;;;;;;6272816;28;20247;-67
2022/05/11 13:16:23;;;;;;;3.28;1.55;;;18.30;87.10;;;;;;6256060;28;20212;-67
2022/05/11 13:19:32;;;;;;;5.32;1.55;;;18.20;84.70;;;;;;6272314;28;20236;-68
2022/05/11 13:22:38;;;;;;;4.97;1.50;;;18.30;83.90;;;;;;6272658;28;20311;-65
2022/05/11 13:25:49;;;;;;;4.72;1.70;;;18.30;83.70;;;;;;6273465;28;20249;-67
2022/05/11 13:28:59;;;;;;;3.22;1.60;;;18.40;83.50;;;;;;6272767;28;20246;-66
2022/05/11 13:32:09;;;;;;;3.75;1.60;;;18.40;83.00;;;;;;6272211;28;20207;-67
2022/05/11 13:35:22;;;;;;;3.78;1.90;;;18.40;81.40;;;;;;6272949;28;20211;-67
2022/05/11 13:38:28;;;;;;;13.98;2.33;;;18.50;80.40;;;;;;6271019;28;20239;-67
2022/05/11 13:41:37;;;;;;;4.72;1.70;;;18.60;79.80;;;;;;6272443;28;20200;-67
2022/05/11 13:44:48;;;;;;;2.58;1.80;;;18.60;80.90;;;;;;6272416;28;20247;-67
2022/05/11 13:48:13;;;;;;;4.13;1.73;;;18.60;78.40;;;;;;6273440;28;20235;-67
2022/05/11 13:51:22;;;;;;;17.02;2.30;;;18.40;78.70;;;;;;6274588;28;20204;-67
2022/05/11 13:54:38;;;;;;;11.15;2.28;;;18.50;79.10;;;;;;6275828;28;20224;-68
2022/05/11 13:57:44;;;;;;;2.50;1.90;;;18.60;79.80;;;;;;6273891;28;20228;-66
2022/05/11 14:00:49;;;;;;;4.40;2.00;;;18.60;80.30;;;;;;6272376;28;20204;-65
2022/05/11 14:03:57;;;;;;;12.13;1.77;;;18.50;77.30;;;;;;6272066;28;20234;-67
2022/05/11 14:07:07;;;;;;;2.42;1.67;;;18.30;76.60;;;;;;6269826;28;20208;-67
2022/05/11 14:10:14;;;;;;;4.47;1.70;;;18.30;75.60;;;;;;6272442;28;20235;-67
2022/05/11 14:13:20;;;;;;;10.50;2.22;;;18.30;75.90;;;;;;6270668;28;20230;-66
2022/05/11 14:16:28;;;;;;;4.57;1.80;;;18.40;75.90;;;;;;6272635;28;20215;-68
2022/05/11 14:19:35;;;;;;;6.43;1.85;;;18.30;76.90;;;;;;6253904;28;20239;-67
2022/05/11 14:22:44;;;;;;;12.38;2.50;;;18.20;76.10;;;;;;6271494;28;20231;-67
2022/05/11 14:25:49;;;;;;;8.15;2.00;;;18.10;77.10;;;;;;6272035;28;20200;-66
2022/05/11 14:28:59;;;;;;;5.78;1.73;;;18.20;77.90;;;;;;6271463;28;20232;-67
2022/05/11 14:32:12;;;;;;;4.22;1.58;;;18.20;77.20;;;;;;6272422;28;20623;-67
2022/05/11 14:35:22;;;;;;;11.90;1.83;;;18.20;75.60;;;;;;6276982;28;20210;-66
2022/05/11 14:38:28;;;;;;;9.23;1.70;;;18.20;73.60;;;;;;6275375;28;20536;-67
2022/05/11 14:41:34;;;;;;;6.97;1.90;;;18.10;73.40;;;;;;6275931;28;20218;-66
2022/05/11 14:44:39;;;;;;;10.73;2.08;;;18.10;75.20;;;;;;6275102;28;20254;-67
2022/05/11 14:48:06;;;;;;;6.47;1.90;;;18.10;75.40;;;;;;6275273;28;20242;-66
2022/05/11 14:51:13;;;;;;;6.82;1.83;;;18.10;75.10;;;;;;6284519;28;20673;-66
2022/05/11 14:54:21;;;;;;;3.53;1.70;;;18.10;74.60;;;;;;6281621;28;20241;-66
2022/05/11 15:04:39;;;;;;;10.75;2.25;;;18.10;77.20;;;;;;6270998;28;20239;-65
2022/05/11 15:07:46;;;;;;;4.88;1.60;;;18.00;76.80;;;;;;6271099;28;20711;-65
2022/05/11 15:13:30;;;;;;;6.18;2.00;;;18.10;79.30;;;;;;6245088;28;20254;-66
2022/05/11 15:14:26;;;;;;;13.25;2.40;;;18.00;84.20;;;;;;6246304;28;20315;-66
2022/05/11 15:17:32;;;;;;;10.30;2.30;;;17.70;87.90;;;;;;6247022;28;20224;-66
2022/05/11 15:20:54;;;;;;;15.10;2.50;;;17.60;90.10;;;;;;6251607;28;20227;-66
2022/05/11 15:24:01;;;;;;;5.72;2.50;;;17.40;92.80;;;;;;6250888;28;20240;-66
2022/05/11 15:27:09;;;;;;;5.18;1.95;;;17.30;93.30;;;;;;6250751;28;20635;-67
2022/05/11 15:30:20;;;;;;;6.20;2.03;;;17.30;93.40;;;;;;6251002;28;20675;-66
2022/05/11 15:33:25;;;;;;;8.48;2.45;;;17.10;94.60;;;;;;6265620;28;20244;-67
2022/05/11 15:36:31;;;;;;;5.72;2.30;;;17.10;96.80;;;;;;6251034;28;20235;-67
2022/05/11 15:39:38;;;;;;;4.93;2.03;;;17.00;98.80;;;;;;6265841;28;20232;-67
2022/05/11 15:42:47;;;;;;;4.45;2.00;;;16.90;99.40;;;;;;6250463;28;20235;-67
2022/05/11 15:45:52;;;;;;;6.00;2.05;;;16.80;99.30;;;;;;6251075;28;20204;-67
2022/05/11 15:48:58;;;;;;;7.40;2.10;;;16.80;98.70;;;;;;6250526;28;20258;-67
2022/05/11 15:52:06;;;;;;;5.07;2.13;;;16.90;98.20;;;;;;6250426;28;20710;-67
2022/05/11 15:55:11;;;;;;;8.20;2.03;;;16.80;98.00;;;;;;6250847;28;20205;-67
2022/05/11 15:58:19;;;;;;;9.75;2.10;;;16.80;97.50;;;;;;6250516;28;20240;-66
2022/05/11 16:01:28;;;;;;;8.27;2.33;;;16.80;98.10;;;;;;6250420;28;20212;-67
2022/05/11 16:04:38;;;;;;;5.13;2.10;;;16.80;97.50;;;;;;6250031;28;20232;-67
2022/05/11 16:07:43;;;;;;;8.45;2.88;;;16.80;97.20;;;;;;6249814;28;20240;-67
2022/05/11 16:10:52;;;;;;;6.05;2.13;;;16.90;97.30;;;;;;6262307;28;20223;-66
2022/05/11 16:14:00;;;;;;;4.35;2.00;;;16.80;97.20;;;;;;6274356;28;20227;-66
2022/05/11 16:20:25;;;;;;;7.65;2.47;;;16.70;97.90;;;;;;6274255;28;20216;-67
2022/05/11 16:23:31;;;;;;;9.82;2.17;;;16.60;97.70;;;;;;6273909;28;20228;-68
2022/05/11 16:26:38;;;;;;;5.05;2.20;;;16.60;98.00;;;;;;6274598;28;20594;-66
2022/05/11 16:29:49;;;;;;;5.70;2.00;;;16.50;97.60;;;;;;6273735;28;20250;-67
2022/05/11 16:32:54;;;;;;;4.00;2.17;;;16.50;97.20;;;;;;6273343;28;20311;-67
2022/05/11 16:36:00;;;;;;;8.15;2.10;;;16.50;97.20;;;;;;6274035;28;20220;-66
2022/05/11 16:39:05;;;;;;;4.78;1.98;;;16.40;96.50;;;;;;6273542;28;20281;-64
2022/05/11 16:42:13;;;;;;;4.53;2.25;;;16.50;96.40;;;;;;6274823;28;20240;-67
2022/05/11 16:45:20;;;;;;;5.20;2.00;;;16.30;96.30;;;;;;6275281;28;20207;-65
2022/05/11 16:48:25;;;;;;;10.90;2.13;;;16.20;96.50;;;;;;6275083;28;20236;-67
2022/05/11 16:51:30;;;;;;;3.05;1.98;;;16.30;96.10;;;;;;6273780;28;20215;-66
2022/05/11 16:54:37;;;;;;;11.43;2.08;;;16.40;96.00;;;;;;6273827;28;20678;-66
2022/05/11 16:57:43;;;;;;;4.38;2.05;;;16.20;96.10;;;;;;6273741;28;20224;-66
2022/05/11 17:00:50;;;;;;;8.30;2.00;;;16.10;96.50;;;;;;6273930;28;20577;-67
2022/05/11 17:03:56;;;;;;;6.45;2.03;;;16.00;96.60;;;;;;6273741;28;20224;-66
2022/05/11 17:07:01;;;;;;;6.95;2.40;;;15.90;97.20;;;;;;6273388;28;20208;-67
2022/05/11 17:10:08;;;;;;;9.60;2.30;;;15.70;98.50;;;;;;6273218;28;20592;-66
2022/05/11 17:13:16;;;;;;;3.05;2.30;;;15.40;99.90;;;;;;6271665;28;20236;-66
2022/05/11 17:16:22;;;;;;;2.55;2.13;;;15.30;99.90;;;;;;6273259;28;20571;-66
2022/05/11 17:19:29;;;;;;;4.53;1.90;;;15.20;99.90;;;;;;6271757;28;20232;-67
2022/05/11 17:22:34;;;;;;;4.80;2.25;;;15.30;99.90;;;;;;6271416;28;20238;-68
2022/05/11 17:25:42;;;;;;;5.95;2.17;;;15.20;99.90;;;;;;6273073;28;20211;-67